Time;durP1;ratioP1;P1;durP2;ratioP2;P2;SDS_P1;SDS_P2;PMS_P1;PMS_P2;Temp;Humidity;BMP_temperature;BMP_pressure;BME280_temperature;BME280_humidity;BME280_pressure;Samples;Min_cycle;Max_cycle;Signal;HPM_P1;HPM_P2
2021/01/13 00:02:09;;;;;;;17.35;8.98;;;0.00;99.90;;;;;;5071299;28;20110;-64
2021/01/13 00:04:36;;;;;;;19.48;7.70;;;0.10;99.90;;;;;;5072874;28;20047;-64
2021/01/13 00:07:03;;;;;;;12.63;6.80;;;0.20;99.90;;;;;;5072644;28;20028;-64
2021/01/13 00:09:28;;;;;;;14.05;6.70;;;0.20;99.90;;;;;;5070394;28;20033;-64
2021/01/13 00:11:58;;;;;;;12.07;6.63;;;0.30;99.90;;;;;;5071785;28;20032;-64
2021/01/13 00:14:25;;;;;;;11.48;6.68;;;0.30;99.90;;;;;;5071787;28;20047;-64
2021/01/13 00:16:52;;;;;;;14.40;5.60;;;0.40;99.90;;;;;;5071812;28;20472;-64
2021/01/13 00:19:18;;;;;;;11.55;6.35;;;0.50;99.90;;;;;;5072926;28;20032;-64
2021/01/13 00:21:51;;;;;;;12.75;6.85;;;0.60;99.90;;;;;;5071206;28;20036;-63
2021/01/13 00:24:17;;;;;;;12.82;6.13;;;0.60;99.90;;;;;;5072586;28;20025;-65
2021/01/13 00:26:43;;;;;;;12.57;5.70;;;0.60;99.90;;;;;;5070369;28;20405;-63
2021/01/13 00:29:10;;;;;;;14.45;6.30;;;0.60;99.90;;;;;;5072568;28;20360;-64
2021/01/13 00:31:36;;;;;;;9.27;4.72;;;0.60;99.90;;;;;;5072214;28;20134;-64
2021/01/13 00:34:02;;;;;;;7.88;4.80;;;0.70;99.90;;;;;;5070733;28;20488;-64
2021/01/13 00:36:29;;;;;;;7.82;5.20;;;0.70;99.90;;;;;;5051871;28;20025;-64
2021/01/13 00:38:55;;;;;;;9.30;4.72;;;0.70;99.90;;;;;;5071487;28;20031;-64
2021/01/13 00:41:21;;;;;;;7.43;3.92;;;0.70;99.90;;;;;;5072342;28;20021;-64
2021/01/13 00:43:50;;;;;;;7.80;4.38;;;0.70;99.90;;;;;;5071138;28;20041;-64
2021/01/13 00:46:17;;;;;;;14.90;5.40;;;0.70;99.90;;;;;;5072003;28;20021;-64
2021/01/13 00:48:42;;;;;;;7.85;4.03;;;0.70;99.90;;;;;;5071256;28;20032;-65
2021/01/13 00:51:08;;;;;;;9.75;4.25;;;0.80;99.90;;;;;;5068250;28;20032;-64
2021/01/13 00:53:34;;;;;;;9.50;3.97;;;0.80;99.90;;;;;;5072052;28;20032;-65
2021/01/13 00:55:59;;;;;;;10.52;4.20;;;0.80;99.90;;;;;;5071355;28;20021;-64
2021/01/13 00:58:25;;;;;;;9.98;4.10;;;0.80;99.90;;;;;;5071382;28;20044;-64
2021/01/13 01:00:51;;;;;;;9.07;3.83;;;0.80;99.90;;;;;;5071130;28;20107;-64
2021/01/13 01:03:20;;;;;;;10.63;4.05;;;0.80;99.90;;;;;;5071924;28;20450;-64
2021/01/13 01:05:48;;;;;;;9.02;3.88;;;0.90;99.90;;;;;;5071104;28;20078;-64
2021/01/13 01:08:14;;;;;;;6.57;3.47;;;0.80;99.90;;;;;;5071838;28;20024;-65
2021/01/13 01:10:40;;;;;;;9.13;3.97;;;0.90;99.90;;;;;;5071632;28;20024;-65
2021/01/13 01:13:07;;;;;;;8.20;4.70;;;0.80;99.90;;;;;;5071570;28;20035;-65
2021/01/13 01:15:33;;;;;;;5.90;3.50;;;0.90;99.90;;;;;;5071693;28;20471;-65
2021/01/13 01:17:59;;;;;;;10.98;4.22;;;0.90;99.90;;;;;;5070719;28;20021;-65
2021/01/13 01:20:25;;;;;;;9.57;3.47;;;0.80;99.90;;;;;;5070901;28;20419;-65
2021/01/13 01:22:56;;;;;;;11.40;4.60;;;0.90;99.90;;;;;;5070788;28;20162;-65
2021/01/13 01:25:23;;;;;;;7.35;3.30;;;0.90;99.90;;;;;;5071152;28;20024;-64
2021/01/13 01:27:53;;;;;;;4.55;3.33;;;0.90;99.90;;;;;;5068127;28;20090;-65
2021/01/13 01:30:20;;;;;;;8.48;3.10;;;0.90;99.90;;;;;;5071361;28;20056;-65
2021/01/13 01:32:46;;;;;;;6.85;3.60;;;0.90;99.90;;;;;;5070292;28;20032;-64
2021/01/13 01:35:13;;;;;;;6.38;3.38;;;0.90;99.90;;;;;;5071185;28;20027;-65
2021/01/13 01:37:39;;;;;;;7.35;3.58;;;0.90;99.90;;;;;;5070706;28;20021;-65
2021/01/13 01:40:07;;;;;;;6.57;3.67;;;0.90;99.90;;;;;;5069927;28;20440;-65
2021/01/13 01:42:33;;;;;;;8.25;4.18;;;1.00;99.90;;;;;;5070900;28;20476;-64
2021/01/13 01:44:59;;;;;;;8.02;3.22;;;1.00;99.90;;;;;;5069853;28;20495;-65
2021/01/13 01:47:56;;;;;;;6.20;3.10;;;1.00;99.90;;;;;;5071248;28;20028;-64
2021/01/13 01:50:22;;;;;;;5.45;2.60;;;1.00;99.90;;;;;;5069197;28;20030;-64
2021/01/13 01:53:03;;;;;;;5.13;2.35;;;1.00;99.90;;;;;;5074884;28;20465;-64
2021/01/13 01:55:33;;;;;;;;;;;1.10;99.90;;;;;;5067639;28;20033;-64
2021/01/13 01:58:07;;;;;;;7.68;2.97;;;1.10;99.90;;;;;;5070540;28;19916;-64
2021/01/13 02:00:34;;;;;;;3.70;2.70;;;1.10;99.90;;;;;;5069183;28;20070;-64
2021/01/13 02:03:10;;;;;;;8.70;2.95;;;1.10;99.90;;;;;;5070824;28;20021;-64
2021/01/13 02:05:37;;;;;;;7.28;3.25;;;1.10;99.90;;;;;;5068952;28;20079;-64
2021/01/13 02:08:02;;;;;;;6.15;2.90;;;1.00;99.90;;;;;;5070551;28;20033;-65
2021/01/13 02:10:28;;;;;;;7.53;3.03;;;1.10;99.90;;;;;;5068023;28;20035;-65
2021/01/13 02:13:05;;;;;;;9.63;3.55;;;1.00;99.90;;;;;;5070189;28;20082;-63
2021/01/13 02:15:30;;;;;;;7.35;3.13;;;1.00;99.90;;;;;;5070943;28;20028;-64
2021/01/13 02:18:01;;;;;;;5.57;2.58;;;1.00;99.90;;;;;;5069589;28;20035;-64
2021/01/13 02:20:30;;;;;;;12.40;3.38;;;1.00;99.90;;;;;;5070179;28;20424;-64
2021/01/13 02:23:14;;;;;;;12.90;2.97;;;1.00;99.90;;;;;;5069883;28;20021;-64
2021/01/13 02:26:00;;;;;;;4.53;2.83;;;1.00;99.90;;;;;;5068713;28;20107;-64
2021/01/13 02:28:28;;;;;;;7.88;2.85;;;1.00;99.90;;;;;;5070321;28;20040;-64
2021/01/13 02:31:02;;;;;;;8.52;2.63;;;1.00;99.90;;;;;;5070038;28;20028;-65
2021/01/13 02:33:41;;;;;;;5.55;2.25;;;1.00;99.90;;;;;;5070639;28;20020;-64
2021/01/13 02:36:38;;;;;;;7.07;3.05;;;1.00;99.90;;;;;;5070173;28;20074;-64
2021/01/13 02:39:07;;;;;;;8.25;2.78;;;1.00;99.90;;;;;;5045125;28;20119;-63
2021/01/13 02:41:42;;;;;;;6.35;2.30;;;0.90;99.90;;;;;;5070562;28;20074;-64
2021/01/13 02:44:12;;;;;;;6.38;2.53;;;0.90;99.90;;;;;;5069354;28;20029;-64
2021/01/13 02:46:46;;;;;;;5.85;2.17;;;0.90;99.90;;;;;;5069839;28;20384;-64
2021/01/13 02:49:13;;;;;;;5.15;2.40;;;0.90;99.90;;;;;;5069033;28;20020;-64
2021/01/13 02:51:40;;;;;;;5.07;2.10;;;0.90;99.90;;;;;;5068918;28;20059;-65
2021/01/13 02:54:28;;;;;;;6.13;2.38;;;0.90;99.90;;;;;;5070575;28;20020;-64
2021/01/13 02:57:18;;;;;;;8.32;3.03;;;0.90;99.90;;;;;;5070915;28;20060;-64
2021/01/13 02:59:46;;;;;;;5.85;2.78;;;0.90;99.90;;;;;;5062442;28;20032;-64
2021/01/13 03:02:12;;;;;;;5.78;2.35;;;0.90;99.90;;;;;;5070207;28;20481;-64
2021/01/13 03:04:39;;;;;;;6.80;2.50;;;0.90;99.90;;;;;;5075247;28;20040;-64
2021/01/13 03:07:25;;;;;;;3.78;2.10;;;0.90;99.90;;;;;;5075331;28;20024;-64
2021/01/13 03:09:56;;;;;;;8.40;2.40;;;0.90;99.90;;;;;;5074522;28;20032;-65
2021/01/13 03:12:25;;;;;;;8.05;2.58;;;0.90;99.90;;;;;;5075416;28;20111;-64
2021/01/13 03:14:53;;;;;;;4.63;2.33;;;0.80;99.90;;;;;;5074686;28;20021;-66
2021/01/13 03:17:34;;;;;;;6.50;2.42;;;0.90;99.90;;;;;;5075801;28;20025;-65
2021/01/13 03:20:23;;;;;;;7.03;2.28;;;0.90;99.90;;;;;;5074708;28;20024;-65
2021/01/13 03:23:20;;;;;;;18.20;3.28;;;0.90;99.90;;;;;;5073371;28;20103;-64
2021/01/13 03:25:54;;;;;;;6.13;2.15;;;0.90;99.90;;;;;;5074167;28;20065;-64
2021/01/13 03:28:25;;;;;;;7.15;1.75;;;0.90;99.90;;;;;;5075417;28;20056;-64
2021/01/13 03:30:52;;;;;;;10.73;2.33;;;0.90;99.90;;;;;;5073563;28;20472;-64
2021/01/13 03:33:41;;;;;;;9.48;3.00;;;0.90;99.90;;;;;;5074630;28;20150;-64
2021/01/13 03:36:17;;;;;;;6.47;2.00;;;0.90;99.90;;;;;;5043475;28;20491;-64
2021/01/13 03:39:05;;;;;;;8.07;2.00;;;0.90;99.90;;;;;;5073926;28;20024;-64
2021/01/13 03:41:53;;;;;;;5.00;2.08;;;0.90;99.90;;;;;;5054874;28;20029;-64
2021/01/13 03:44:30;;;;;;;8.00;2.30;;;0.90;99.90;;;;;;5054851;28;20364;-64
2021/01/13 03:47:18;;;;;;;5.53;2.47;;;0.80;99.90;;;;;;5052807;28;20976;-64
2021/01/13 03:50:17;;;;;;;9.30;2.53;;;0.80;99.90;;;;;;5063658;28;20028;-64
2021/01/13 03:53:05;;;;;;;8.13;2.20;;;0.90;99.90;;;;;;5073793;28;20029;-64
2021/01/13 03:55:33;;;;;;;4.32;1.80;;;0.80;99.90;;;;;;5073082;28;20060;-64
2021/01/13 03:58:07;;;;;;;5.78;1.98;;;0.80;99.90;;;;;;5074018;28;20029;-64
2021/01/13 04:01:12;;;;;;;4.95;2.15;;;0.90;99.90;;;;;;5073850;28;20497;-64
2021/01/13 04:03:51;;;;;;;5.97;2.35;;;0.80;99.90;;;;;;5073107;28;20051;-64
2021/01/13 04:06:16;;;;;;;5.50;2.25;;;0.80;99.90;;;;;;5074756;28;20138;-64
2021/01/13 04:08:44;;;;;;;5.35;2.17;;;0.80;99.90;;;;;;5073189;28;20056;-65
2021/01/13 04:11:12;;;;;;;11.20;2.33;;;0.80;99.90;;;;;;5074381;28;20112;-64
2021/01/13 04:13:44;;;;;;;8.77;2.03;;;0.80;99.90;;;;;;5073540;28;20498;-64
2021/01/13 04:16:15;;;;;;;8.50;3.13;;;0.80;99.90;;;;;;5074190;28;20129;-64
2021/01/13 04:18:42;;;;;;;;;;;0.80;99.90;;;;;;5074432;28;20125;-64
2021/01/13 04:21:11;;;;;;;4.90;1.90;;;0.80;99.90;;;;;;5052980;28;19913;-64
2021/01/13 04:23:37;;;;;;;6.43;2.40;;;0.80;99.90;;;;;;5071917;28;20068;-64
2021/01/13 04:26:03;;;;;;;5.80;2.13;;;0.80;99.90;;;;;;5073097;28;20101;-64
2021/01/13 04:28:29;;;;;;;8.63;3.33;;;0.70;99.90;;;;;;5073835;28;20469;-65
2021/01/13 04:30:56;;;;;;;4.60;2.13;;;0.80;99.90;;;;;;5073608;28;20064;-64
2021/01/13 04:33:23;;;;;;;5.38;2.75;;;0.70;99.90;;;;;;5073598;28;20017;-65
2021/01/13 04:35:50;;;;;;;5.90;2.22;;;0.80;99.90;;;;;;5073153;28;20024;-64
2021/01/13 04:38:21;;;;;;;10.23;2.92;;;0.70;99.90;;;;;;5073804;28;20074;-65
2021/01/13 04:41:11;;;;;;;5.97;2.30;;;0.70;99.90;;;;;;5072673;28;20029;-64
2021/01/13 04:43:53;;;;;;;7.30;2.60;;;0.70;99.90;;;;;;5073119;28;20041;-64
2021/01/13 04:46:38;;;;;;;5.75;2.60;;;0.70;99.90;;;;;;5074440;28;20480;-64
2021/01/13 04:49:31;;;;;;;5.45;2.65;;;0.70;99.90;;;;;;5072869;28;20457;-65
2021/01/13 04:52:02;;;;;;;8.25;2.67;;;0.60;99.90;;;;;;5069976;28;20190;-65
2021/01/13 04:54:31;;;;;;;7.13;3.25;;;0.60;99.90;;;;;;5073285;28;20025;-65
2021/01/13 04:57:17;;;;;;;5.57;2.80;;;0.60;99.90;;;;;;5072842;28;20035;-65
2021/01/13 05:00:06;;;;;;;5.15;2.42;;;0.60;99.90;;;;;;5072434;28;20036;-65
2021/01/13 05:02:41;;;;;;;6.90;2.75;;;0.50;99.90;;;;;;5073224;28;20032;-64
2021/01/13 05:05:07;;;;;;;7.85;2.85;;;0.50;99.90;;;;;;5053484;28;20029;-64
2021/01/13 05:07:40;;;;;;;7.47;3.28;;;0.50;99.90;;;;;;5053367;28;20056;-64
2021/01/13 05:10:08;;;;;;;10.48;3.08;;;0.50;99.90;;;;;;5068284;28;20025;-64
2021/01/13 05:12:56;;;;;;;8.07;2.95;;;0.50;99.90;;;;;;5073175;28;20033;-64
2021/01/13 05:15:29;;;;;;;8.25;2.92;;;0.60;99.90;;;;;;5073402;28;20020;-64
2021/01/13 05:18:39;;;;;;;10.07;2.63;;;0.60;99.90;;;;;;5072094;28;20032;-64
2021/01/13 05:21:19;;;;;;;8.25;2.47;;;0.60;99.90;;;;;;5056394;28;20080;-65
2021/01/13 05:23:48;;;;;;;10.23;3.63;;;0.60;99.90;;;;;;5072702;28;20033;-64
2021/01/13 05:26:19;;;;;;;6.50;3.50;;;0.60;99.90;;;;;;5072113;28;20492;-64
2021/01/13 05:29:03;;;;;;;8.23;4.15;;;0.60;99.90;;;;;;5072698;28;20029;-64
2021/01/13 05:31:33;;;;;;;11.30;3.83;;;0.60;99.90;;;;;;5072429;28;20160;-64
2021/01/13 05:34:01;;;;;;;9.70;3.63;;;0.60;99.90;;;;;;5071801;28;20061;-64
2021/01/13 05:36:30;;;;;;;8.05;3.30;;;0.50;99.90;;;;;;5071091;28;20032;-64
2021/01/13 05:39:11;;;;;;;8.43;3.40;;;0.50;99.90;;;;;;5071855;28;20103;-63
2021/01/13 05:41:39;;;;;;;8.48;3.00;;;0.50;99.90;;;;;;5052503;28;20120;-64
2021/01/13 05:44:05;;;;;;;9.85;3.25;;;0.50;99.90;;;;;;5071503;28;20036;-63
2021/01/13 05:46:49;;;;;;;11.82;4.03;;;0.50;99.90;;;;;;5072608;28;20024;-63
2021/01/13 05:49:16;;;;;;;11.88;3.63;;;0.50;99.90;;;;;;5072704;28;20039;-63
2021/01/13 05:51:42;;;;;;;7.07;2.92;;;0.50;99.90;;;;;;5072330;28;20025;-64
2021/01/13 05:54:15;;;;;;;7.28;3.13;;;0.40;99.90;;;;;;5071658;28;20036;-64
2021/01/13 05:56:41;;;;;;;8.63;3.08;;;0.40;99.90;;;;;;5072470;28;20040;-64
2021/01/13 05:59:11;;;;;;;14.25;3.40;;;0.40;99.90;;;;;;5071540;28;20033;-64
2021/01/13 06:02:01;;;;;;;10.18;3.38;;;0.30;99.90;;;;;;5072052;28;20143;-63
2021/01/13 06:04:27;;;;;;;8.75;3.25;;;0.30;99.90;;;;;;5067435;28;20043;-64
2021/01/13 06:07:17;;;;;;;6.65;3.00;;;0.20;99.90;;;;;;5071291;28;20029;-63
2021/01/13 06:09:44;;;;;;;5.80;2.85;;;0.10;99.90;;;;;;5070422;28;20044;-64
2021/01/13 06:12:16;;;;;;;5.13;2.67;;;0.00;99.90;;;;;;5070193;28;20040;-64
2021/01/13 06:14:42;;;;;;;13.02;3.00;;;0.00;99.90;;;;;;5070790;28;20023;-64
2021/01/13 06:17:20;;;;;;;4.93;2.80;;;-0.10;99.90;;;;;;5069899;28;20028;-64
2021/01/13 06:19:50;;;;;;;6.10;3.33;;;-0.10;99.90;;;;;;5067807;28;20028;-64
2021/01/13 06:22:17;;;;;;;7.07;3.28;;;-0.10;99.90;;;;;;5068500;28;20095;-65
2021/01/13 06:24:46;;;;;;;7.80;3.55;;;-0.20;99.90;;;;;;5070076;28;20029;-65
2021/01/13 06:27:22;;;;;;;9.02;4.30;;;-0.30;99.90;;;;;;5069777;28;20049;-64
2021/01/13 06:29:49;;;;;;;9.52;3.50;;;-0.30;99.90;;;;;;5067667;28;20052;-64
2021/01/13 06:32:27;;;;;;;13.70;4.10;;;-0.40;99.90;;;;;;5070432;28;20111;-64
2021/01/13 06:35:17;;;;;;;15.10;3.80;;;-0.50;99.90;;;;;;5068367;28;20017;-65
2021/01/13 06:37:47;;;;;;;;;;;-0.50;99.90;;;;;;5037543;28;20040;-64
2021/01/13 06:40:18;;;;;;;8.45;4.18;;;-0.50;99.90;;;;;;5070114;28;19905;-65
2021/01/13 06:42:44;;;;;;;7.93;4.50;;;-0.60;99.90;;;;;;5067076;28;20070;-65
2021/01/13 06:45:11;;;;;;;9.27;4.60;;;-0.60;99.90;;;;;;5069963;28;20067;-65
2021/01/13 06:47:53;;;;;;;14.63;5.22;;;-0.60;99.90;;;;;;5070063;28;20447;-65
2021/01/13 06:50:39;;;;;;;10.10;4.78;;;-0.60;99.90;;;;;;5069147;28;20553;-63
2021/01/13 06:53:09;;;;;;;10.15;5.00;;;-0.60;99.90;;;;;;5066920;28;20441;-65
2021/01/13 06:55:36;;;;;;;7.88;4.57;;;-0.60;99.90;;;;;;5070330;28;20029;-65
2021/01/13 06:58:20;;;;;;;9.02;4.20;;;-0.60;99.90;;;;;;5068907;28;20115;-65
2021/01/13 07:00:47;;;;;;;8.80;4.55;;;-0.70;99.90;;;;;;5065799;28;20056;-65
2021/01/13 07:03:29;;;;;;;17.50;5.65;;;-0.70;99.90;;;;;;5070558;28;20512;-65
2021/01/13 07:06:09;;;;;;;12.77;5.40;;;-0.80;99.90;;;;;;5066860;28;20021;-65
2021/01/13 07:08:35;;;;;;;14.93;5.88;;;-0.70;99.90;;;;;;5068955;28;20033;-65
2021/01/13 07:11:06;;;;;;;17.13;6.13;;;-0.70;99.90;;;;;;5069419;28;20159;-65
2021/01/13 07:13:36;;;;;;;16.48;5.78;;;-0.70;99.90;;;;;;5070666;28;20020;-65
2021/01/13 07:16:04;;;;;;;11.68;5.60;;;-0.70;99.90;;;;;;5068778;28;20078;-65
2021/01/13 07:18:30;;;;;;;10.90;5.22;;;-0.70;99.90;;;;;;5070360;28;20032;-65
2021/01/13 07:21:04;;;;;;;10.77;5.68;;;-0.60;99.90;;;;;;5069206;28;20032;-65
2021/01/13 07:23:30;;;;;;;15.82;5.78;;;-0.60;99.90;;;;;;5070207;28;20081;-65
2021/01/13 07:25:56;;;;;;;12.13;5.38;;;-0.60;99.90;;;;;;5068786;28;20465;-65
2021/01/13 07:28:23;;;;;;;15.00;6.45;;;-0.60;99.90;;;;;;5029661;28;20415;-66
2021/01/13 07:30:52;;;;;;;10.88;5.53;;;-0.60;99.90;;;;;;5029234;28;20022;-65
2021/01/13 07:33:19;;;;;;;15.13;5.82;;;-0.60;99.90;;;;;;5030722;28;20033;-63
2021/01/13 07:35:48;;;;;;;12.27;5.50;;;-0.60;99.90;;;;;;5027194;28;20060;-63
2021/01/13 07:38:18;;;;;;;10.45;5.90;;;-0.50;99.90;;;;;;5031200;28;20029;-63
2021/01/13 07:41:05;;;;;;;12.50;5.38;;;-0.50;99.90;;;;;;5028415;28;20026;-65
2021/01/13 07:43:57;;;;;;;10.05;5.20;;;-0.50;99.90;;;;;;5030633;28;20036;-65
2021/01/13 07:46:31;;;;;;;12.80;6.03;;;-0.40;99.90;;;;;;5031345;28;20478;-66
2021/01/13 07:49:15;;;;;;;15.93;5.43;;;-0.40;99.90;;;;;;5030626;28;20509;-66
2021/01/13 07:51:47;;;;;;;10.70;5.47;;;-0.40;99.90;;;;;;5033696;28;20029;-64
2021/01/13 07:54:29;;;;;;;10.88;4.60;;;-0.30;99.90;;;;;;5033844;28;20100;-65
2021/01/13 07:57:04;;;;;;;11.18;5.38;;;-0.40;99.90;;;;;;5033558;28;20045;-66
2021/01/13 07:59:34;;;;;;;13.63;6.15;;;-0.40;99.90;;;;;;5020606;28;20060;-66
2021/01/13 08:02:08;;;;;;;11.93;4.65;;;-0.40;99.90;;;;;;5030769;28;20479;-64
2021/01/13 08:05:11;;;;;;;15.00;5.57;;;-0.30;99.90;;;;;;5033688;28;20091;-65
2021/01/13 08:07:39;;;;;;;11.40;4.70;;;-0.30;99.90;;;;;;5028799;28;20386;-64
2021/01/13 08:10:06;;;;;;;14.90;4.53;;;-0.20;99.90;;;;;;5028117;28;20116;-63
2021/01/13 08:12:53;;;;;;;18.00;6.00;;;-0.20;99.90;;;;;;5032876;28;20034;-61
2021/01/13 08:15:50;;;;;;;8.57;3.35;;;-0.10;99.90;;;;;;5033827;28;20061;-61
2021/01/13 08:19:11;;;;;;;11.45;4.20;;;0.00;99.90;;;;;;5033706;28;20473;-64
2021/01/13 08:21:43;;;;;;;15.38;4.00;;;0.10;99.90;;;;;;5034125;28;20116;-63
2021/01/13 08:24:25;;;;;;;17.65;4.20;;;0.20;99.90;;;;;;5033379;28;20117;-64
2021/01/13 08:26:52;;;;;;;7.03;3.40;;;0.20;99.90;;;;;;5046948;28;20051;-61
2021/01/13 08:29:22;;;;;;;8.00;4.18;;;0.30;99.90;;;;;;5072521;28;20059;-68
2021/01/13 08:32:00;;;;;;;8.23;3.38;;;0.40;99.90;;;;;;5072485;28;20064;-64
2021/01/13 08:34:36;;;;;;;9.48;3.20;;;0.40;99.90;;;;;;5073908;28;20025;-64
2021/01/13 08:37:02;;;;;;;11.15;3.70;;;0.50;99.90;;;;;;5077138;28;20162;-62
2021/01/13 08:39:32;;;;;;;12.13;3.63;;;0.60;99.90;;;;;;5067228;28;20086;-63
2021/01/13 08:42:21;;;;;;;5.35;3.10;;;0.70;99.90;;;;;;5055129;28;20037;-63
2021/01/13 08:44:48;;;;;;;6.30;3.30;;;0.80;99.90;;;;;;5072995;28;20032;-64
2021/01/13 08:47:14;;;;;;;10.95;4.03;;;0.90;99.90;;;;;;5072662;28;20115;-61
2021/01/13 08:49:41;;;;;;;11.45;3.50;;;0.90;99.90;;;;;;5073281;28;20059;-64
2021/01/13 08:52:22;;;;;;;8.35;3.70;;;0.90;99.90;;;;;;5072582;28;20036;-67
2021/01/13 08:54:48;;;;;;;7.45;3.42;;;0.90;99.90;;;;;;5072641;28;20060;-64
2021/01/13 08:57:16;;;;;;;7.95;2.50;;;0.90;99.90;;;;;;5067440;28;20520;-67
2021/01/13 08:59:47;;;;;;;10.82;3.10;;;1.00;99.90;;;;;;5085061;28;20020;-66
2021/01/13 09:02:15;;;;;;;12.65;2.85;;;1.00;99.90;;;;;;5070776;28;20032;-67
2021/01/13 09:04:54;;;;;;;9.30;2.80;;;1.00;99.90;;;;;;5065705;28;20032;-64
2021/01/13 09:07:24;;;;;;;8.43;2.92;;;1.10;99.90;;;;;;5075105;28;20037;-63
2021/01/13 09:09:59;;;;;;;7.60;2.47;;;1.20;99.90;;;;;;5069275;28;20054;-64
2021/01/13 09:12:37;;;;;;;5.32;3.28;;;1.20;99.90;;;;;;5071327;28;20035;-65
2021/01/13 09:15:08;;;;;;;12.15;3.15;;;1.30;99.90;;;;;;5070495;28;20056;-64
2021/01/13 09:17:37;;;;;;;8.80;2.88;;;1.40;99.90;;;;;;5072136;28;20142;-65
2021/01/13 09:20:06;;;;;;;11.02;3.25;;;1.50;99.90;;;;;;5062920;28;20100;-65
2021/01/13 09:22:59;;;;;;;6.75;3.30;;;1.60;99.90;;;;;;5062839;28;20166;-65
2021/01/13 09:25:27;;;;;;;9.75;2.90;;;1.70;99.90;;;;;;5068919;28;20059;-64
2021/01/13 09:28:00;;;;;;;8.60;2.33;;;1.70;99.50;;;;;;5066482;28;20052;-65
2021/01/13 09:30:40;;;;;;;7.45;2.55;;;1.80;99.30;;;;;;5068275;28;20480;-66
2021/01/13 09:33:37;;;;;;;12.83;3.47;;;1.80;99.00;;;;;;5070268;28;20330;-64
2021/01/13 09:36:03;;;;;;;6.50;2.70;;;1.90;98.00;;;;;;5070162;28;20039;-65
2021/01/13 09:38:36;;;;;;;9.20;2.65;;;2.00;97.80;;;;;;5069541;28;20028;-65
2021/01/13 09:41:06;;;;;;;12.73;2.65;;;2.10;97.60;;;;;;5067363;28;20036;-65
2021/01/13 09:43:46;;;;;;;8.35;2.40;;;2.10;97.40;;;;;;5072010;28;20043;-65
2021/01/13 09:46:23;;;;;;;13.68;2.47;;;2.10;97.00;;;;;;5073213;28;20095;-65
2021/01/13 09:49:01;;;;;;;6.18;2.33;;;2.20;96.00;;;;;;5084400;28;20028;-65
2021/01/13 09:51:28;;;;;;;5.97;2.08;;;2.10;96.30;;;;;;5071853;28;20435;-65
2021/01/13 09:53:57;;;;;;;7.22;1.90;;;2.20;95.00;;;;;;5070575;28;20384;-65
2021/01/13 09:56:25;;;;;;;6.30;2.22;;;2.20;95.60;;;;;;5071022;28;20454;-65
2021/01/13 09:58:51;;;;;;;11.32;1.90;;;2.20;95.40;;;;;;5070918;28;20032;-65
2021/01/13 10:01:21;;;;;;;9.93;2.53;;;2.20;96.00;;;;;;5067018;28;20071;-65
2021/01/13 10:03:49;;;;;;;10.40;2.50;;;2.20;96.20;;;;;;5070338;28;20432;-65
2021/01/13 10:06:19;;;;;;;7.18;2.22;;;2.30;96.20;;;;;;5071269;28;20111;-66
2021/01/13 10:08:46;;;;;;;6.65;1.92;;;2.30;95.60;;;;;;5070521;28;20038;-65
2021/01/13 10:11:13;;;;;;;7.93;2.53;;;2.30;95.80;;;;;;5069949;28;20497;-66
2021/01/13 10:13:41;;;;;;;6.20;2.30;;;2.40;94.20;;;;;;5069897;28;20040;-65
2021/01/13 10:16:08;;;;;;;6.95;1.95;;;2.40;95.70;;;;;;5070430;28;20639;-66
2021/01/13 10:18:34;;;;;;;9.40;2.67;;;2.40;95.90;;;;;;5070068;28;20047;-66
2021/01/13 10:21:02;;;;;;;7.50;1.80;;;2.40;96.10;;;;;;5070463;28;20021;-66
2021/01/13 10:23:30;;;;;;;10.25;2.17;;;2.50;95.80;;;;;;5071453;28;20488;-66
2021/01/13 10:26:07;;;;;;;8.32;1.83;;;2.60;94.90;;;;;;5070263;28;20024;-66
2021/01/13 10:28:34;;;;;;;7.90;2.50;;;2.60;95.20;;;;;;5070765;28;20659;-66
2021/01/13 10:31:01;;;;;;;8.00;1.85;;;2.70;94.50;;;;;;5064583;28;20346;-66
2021/01/13 10:33:47;;;;;;;12.82;2.60;;;2.80;94.30;;;;;;5069822;28;20028;-66
2021/01/13 10:36:37;;;;;;;6.82;2.00;;;2.80;93.70;;;;;;5069826;28;20021;-65
2021/01/13 10:39:23;;;;;;;4.57;1.95;;;2.90;94.20;;;;;;5068070;28;20453;-65
2021/01/13 10:41:51;;;;;;;8.02;2.13;;;2.90;93.40;;;;;;5067737;28;20040;-66
2021/01/13 10:44:18;;;;;;;7.47;2.80;;;3.00;92.90;;;;;;5070858;28;20041;-66
2021/01/13 10:46:48;;;;;;;5.45;2.40;;;3.10;92.20;;;;;;5070777;28;20101;-66
2021/01/13 10:49:21;;;;;;;4.95;1.98;;;3.10;92.30;;;;;;5069466;28;20064;-66
2021/01/13 10:51:49;;;;;;;8.25;2.00;;;3.10;91.60;;;;;;5070751;28;20040;-66
2021/01/13 10:54:26;;;;;;;7.75;2.55;;;3.20;91.40;;;;;;5070041;28;20023;-65
2021/01/13 10:56:57;;;;;;;10.25;2.38;;;3.20;91.50;;;;;;5064889;28;20037;-65
2021/01/13 10:59:23;;;;;;;13.82;2.28;;;3.20;91.40;;;;;;5067629;28;20024;-66
2021/01/13 11:02:09;;;;;;;11.57;2.30;;;3.20;91.70;;;;;;5069000;28;20486;-66
2021/01/13 11:04:43;;;;;;;7.25;2.03;;;3.30;91.60;;;;;;5069212;28;20044;-66
2021/01/13 11:07:18;;;;;;;7.97;1.90;;;3.50;90.10;;;;;;5057285;28;20115;-66
2021/01/13 11:09:51;;;;;;;4.90;1.80;;;3.60;90.90;;;;;;5068277;28;20333;-66
2021/01/13 11:12:22;;;;;;;5.50;1.75;;;3.70;89.10;;;;;;5049689;28;20133;-66
2021/01/13 11:14:50;;;;;;;6.57;1.80;;;3.80;88.00;;;;;;5067410;28;20051;-66
2021/01/13 11:17:19;;;;;;;4.93;1.92;;;3.80;87.60;;;;;;5069585;28;20025;-66
2021/01/13 11:19:57;;;;;;;3.97;1.60;;;4.00;88.10;;;;;;5070958;28;20036;-66
2021/01/13 11:22:45;;;;;;;10.30;2.00;;;4.00;85.80;;;;;;5070617;28;20024;-66
2021/01/13 11:25:33;;;;;;;7.57;2.03;;;4.20;85.30;;;;;;5072337;28;20116;-65
2021/01/13 11:28:03;;;;;;;8.02;1.85;;;4.20;84.90;;;;;;5073124;28;20461;-65
2021/01/13 11:30:31;;;;;;;7.18;1.55;;;4.20;85.30;;;;;;5071648;28;20025;-66
2021/01/13 11:32:59;;;;;;;4.85;1.60;;;4.20;84.80;;;;;;5069604;28;20245;-69
2021/01/13 11:35:46;;;;;;;11.48;1.45;;;4.20;83.70;;;;;;5067634;28;20039;-66
2021/01/13 11:38:36;;;;;;;5.38;2.03;;;4.10;82.70;;;;;;5061395;28;20194;-65
2021/01/13 11:41:21;;;;;;;4.78;1.58;;;4.10;82.70;;;;;;5065810;28;20756;-66
2021/01/13 11:44:02;;;;;;;4.30;1.45;;;4.00;84.40;;;;;;5073643;28;20393;-66
2021/01/13 11:46:48;;;;;;;5.25;1.60;;;4.10;83.40;;;;;;5062548;28;20078;-66
2021/01/13 11:49:25;;;;;;;5.88;1.80;;;4.10;83.90;;;;;;5073667;28;20081;-66
2021/01/13 11:51:53;;;;;;;8.23;2.10;;;4.10;82.60;;;;;;5074033;28;20032;-67
2021/01/13 11:54:31;;;;;;;8.40;1.90;;;4.20;81.80;;;;;;5073668;28;20031;-66
2021/01/13 11:57:20;;;;;;;8.88;1.70;;;4.20;81.70;;;;;;5073356;28;20039;-66
2021/01/13 11:59:46;;;;;;;7.97;1.80;;;4.20;81.00;;;;;;5072113;28;20079;-66
2021/01/13 12:02:30;;;;;;;7.53;1.70;;;4.20;80.00;;;;;;5078244;28;20108;-74
2021/01/13 12:04:55;;;;;;;7.28;1.35;;;4.20;80.40;;;;;;5071639;28;20440;-67
2021/01/13 12:07:21;;;;;;;3.90;1.60;;;4.20;78.80;;;;;;5067724;28;20025;-66
2021/01/13 12:10:08;;;;;;;7.15;1.50;;;4.20;80.00;;;;;;5069423;28;20028;-67
2021/01/13 12:12:33;;;;;;;6.28;1.40;;;4.20;80.60;;;;;;5066181;28;20043;-66
2021/01/13 12:15:08;;;;;;;7.15;1.67;;;4.20;80.10;;;;;;5072556;28;20445;-65
2021/01/13 12:17:46;;;;;;;6.57;1.40;;;4.20;81.40;;;;;;5073511;28;20029;-65
2021/01/13 12:20:12;;;;;;;4.63;1.67;;;4.20;80.50;;;;;;5072693;28;20052;-66
2021/01/13 12:22:38;;;;;;;5.30;0.90;;;4.20;80.80;;;;;;5072049;28;20033;-66
2021/01/13 12:25:04;;;;;;;3.80;1.23;;;4.30;79.30;;;;;;5077143;28;20089;-65
2021/01/13 12:27:31;;;;;;;8.00;1.40;;;4.30;80.10;;;;;;5071382;28;20496;-66
2021/01/13 12:30:13;;;;;;;4.03;1.05;;;4.30;81.30;;;;;;5069060;28;20338;-67
2021/01/13 12:32:41;;;;;;;7.03;1.42;;;4.30;79.40;;;;;;5071001;28;20066;-65
2021/01/13 12:35:10;;;;;;;4.28;0.93;;;4.30;79.50;;;;;;5070345;28;20017;-65
2021/01/13 12:37:49;;;;;;;1.88;0.65;;;4.30;76.60;;;;;;5073143;28;20032;-65
2021/01/13 12:40:15;;;;;;;3.70;0.60;;;4.30;76.10;;;;;;5066965;28;20031;-65
2021/01/13 12:42:41;;;;;;;4.93;1.08;;;4.20;76.50;;;;;;5071478;28;20035;-65
2021/01/13 12:45:07;;;;;;;6.03;1.17;;;4.10;77.40;;;;;;5071809;28;20384;-65
2021/01/13 12:47:32;;;;;;;10.15;1.02;;;4.00;77.00;;;;;;5072672;28;20028;-65
2021/01/13 12:49:58;;;;;;;6.60;1.35;;;4.00;77.70;;;;;;5071957;28;20028;-65
2021/01/13 12:52:24;;;;;;;3.20;0.80;;;4.00;77.50;;;;;;5072681;28;20029;-65
2021/01/13 12:54:50;;;;;;;4.35;0.70;;;4.00;78.00;;;;;;5073140;28;20481;-66
2021/01/13 12:57:16;;;;;;;6.68;1.00;;;4.10;78.40;;;;;;5072045;28;20079;-65
2021/01/13 12:59:42;;;;;;;8.15;1.27;;;4.20;75.80;;;;;;5069650;28;20429;-65
2021/01/13 13:02:09;;;;;;;6.25;0.80;;;4.30;75.90;;;;;;5071064;28;20098;-65
2021/01/13 13:04:34;;;;;;;6.95;0.77;;;4.30;75.60;;;;;;5072335;28;20033;-65
2021/01/13 13:07:00;;;;;;;2.67;0.55;;;4.30;76.20;;;;;;5083271;28;20020;-66
2021/01/13 13:09:26;;;;;;;7.15;0.80;;;4.20;75.30;;;;;;5077964;28;20082;-65
2021/01/13 13:11:55;;;;;;;3.35;0.90;;;4.30;74.00;;;;;;5072004;28;20041;-65
2021/01/13 13:14:20;;;;;;;6.95;0.90;;;4.30;74.10;;;;;;5071740;28;20031;-66
2021/01/13 13:16:46;;;;;;;3.90;0.60;;;4.30;73.90;;;;;;5071778;28;20028;-65
2021/01/13 13:19:13;;;;;;;3.75;0.77;;;4.30;74.30;;;;;;5071257;28;20075;-64
2021/01/13 13:21:38;;;;;;;4.22;1.10;;;4.30;75.30;;;;;;5071797;28;20040;-65
2021/01/13 13:24:05;;;;;;;6.45;0.90;;;4.30;74.90;;;;;;5071910;28;20350;-65